Aeroporto :
LOGIN :

Iscrizione | Disclaimer

   EN    FR    IT 

 










Sommario :    VFR   VFR Marginale   IFR   IFR Intensivo   IFR Molto Intensivo
Visibilità : 
Base nubi : 
>= 8 km
>= 3000ft
5 / 8 km
1000 / 3000 ft
1500m / 5 km
500 / 1000 ft
800 / 1500m
200 / 500 ft
< 800m
< 200 ft
Simboli :   Temporali  Nebbia  Neve Forte  Precipitazioni Forti  Vento > 20 kt
SIGMETs :   Varie  Temporali  Ghiacco  Turbolenza  Onda orograficha  Ceneri Vulcaniche






- Altitudine del aeroporto : 194 ft
- Codice IATA : ANE


LFJR - Angers Marcé

ULTIMO METAR :
  • 250430Z AUTO 10003KT CAVOK 09/08 Q1017

METARs OBSOLETI :
  • 250400Z AUTO 08003KT CAVOK 09/08 Q1018
  • 250330Z AUTO 07002KT CAVOK 09/08 Q1018
  • 250300Z AUTO 07002KT CAVOK 09/09 Q1018
  • 250230Z AUTO 06002KT CAVOK 09/08 Q1018
  • 250200Z AUTO 06002KT CAVOK 09/08 Q1018
  • 250130Z AUTO 00000KT CAVOK 10/09 Q1018
  • 250100Z AUTO VRB02KT CAVOK 11/10 Q1018
  • 250030Z AUTO 09004KT CAVOK 11/10 Q1018
  • 250000Z AUTO VRB02KT CAVOK 12/11 Q1019

Previsioni scadute.



MetMap, La meteo Aeronautica in un colpo d'occhio ! - Copyright ORBIFLY Dicembre 2007 - Disclaimer

ORBIFLY MET'MAP TEAM :

Programmazione e sviluppo : Alexandra Zaïnal
Concezione : Baudouin d'Aumeries
Supporto tecnico e logistico : Manuel Goepfert
Aiuto : Marc-Olivier Méhu
Aiuto per la traduzione : Arnaldo La Scala




FONTI E CREDITI :

   NOAA